sensor_id;sensor_type;location;lat;lon;timestamp;temperature;humidity
22607;DHT22;11470;20.968;105.834;2024-03-23T00:57:18;23.70;99.90
22607;DHT22;11470;20.968;105.834;2024-03-23T01:02:21;23.90;99.90
22607;DHT22;11470;20.968;105.834;2024-03-23T01:07:25;23.90;99.90
22607;DHT22;11470;20.968;105.834;2024-03-23T01:12:30;24.00;99.90
22607;DHT22;11470;20.968;105.834;2024-03-23T01:17:34;24.20;99.90
22607;DHT22;11470;20.968;105.834;2024-03-23T01:22:37;24.40;99.90
22607;DHT22;11470;20.968;105.834;2024-03-23T01:27:41;24.60;99.90
22607;DHT22;11470;20.968;105.834;2024-03-23T01:32:44;24.90;99.90
22607;DHT22;11470;20.968;105.834;2024-03-23T01:37:49;24.80;99.90
22607;DHT22;11470;20.968;105.834;2024-03-23T01:42:57;24.80;99.90
22607;DHT22;11470;20.968;105.834;2024-03-23T01:48:01;24.70;99.90
22607;DHT22;11470;20.968;105.834;2024-03-23T01:53:05;25.20;99.90
22607;DHT22;11470;20.968;105.834;2024-03-23T01:58:09;25.40;99.90
22607;DHT22;11470;20.968;105.834;2024-03-23T02:03:27;25.70;99.90
22607;DHT22;11470;20.968;105.834;2024-03-23T02:08:31;26.20;99.90
22607;DHT22;11470;20.968;105.834;2024-03-23T02:13:35;26.10;99.90
22607;DHT22;11470;20.968;105.834;2024-03-23T02:18:39;25.80;99.90
22607;DHT22;11470;20.968;105.834;2024-03-23T02:23:44;25.90;99.90
22607;DHT22;11470;20.968;105.834;2024-03-23T02:28:48;26.10;99.90
22607;DHT22;11470;20.968;105.834;2024-03-23T02:33:52;26.20;99.90
22607;DHT22;11470;20.968;105.834;2024-03-23T02:38:56;26.50;99.90
22607;DHT22;11470;20.968;105.834;2024-03-23T02:43:59;26.50;99.90
22607;DHT22;11470;20.968;105.834;2024-03-23T02:49:03;26.50;99.90
22607;DHT22;11470;20.968;105.834;2024-03-23T02:54:07;26.60;99.90
22607;DHT22;11470;20.968;105.834;2024-03-23T02:59:11;26.90;99.90
22607;DHT22;11470;20.968;105.834;2024-03-23T03:04:14;26.90;99.90
22607;DHT22;11470;20.968;105.834;2024-03-23T03:09:18;27.20;99.90
22607;DHT22;11470;20.968;105.834;2024-03-23T03:14:22;28.00;99.90
22607;DHT22;11470;20.968;105.834;2024-03-23T03:19:25;29.30;99.90
22607;DHT22;11470;20.968;105.834;2024-03-23T03:24:29;29.40;99.90
22607;DHT22;11470;20.968;105.834;2024-03-23T03:29:33;29.30;99.90
22607;DHT22;11470;20.968;105.834;2024-03-23T03:34:43;29.10;99.90
22607;DHT22;11470;20.968;105.834;2024-03-23T03:39:47;29.80;99.90
22607;DHT22;11470;20.968;105.834;2024-03-23T03:44:50;30.40;99.90
22607;DHT22;11470;20.968;105.834;2024-03-23T03:49:55;29.80;99.90
22607;DHT22;11470;20.968;105.834;2024-03-23T03:55:02;29.90;99.90
22607;DHT22;11470;20.968;105.834;2024-03-23T04:00:07;29.70;99.90
22607;DHT22;11470;20.968;105.834;2024-03-23T04:05:15;29.50;99.90
22607;DHT22;11470;20.968;105.834;2024-03-23T04:10:18;29.40;99.90
22607;DHT22;11470;20.968;105.834;2024-03-23T04:15:23;29.50;99.90
22607;DHT22;11470;20.968;105.834;2024-03-23T04:20:26;29.70;99.90
22607;DHT22;11470;20.968;105.834;2024-03-23T04:25:30;30.70;99.90
22607;DHT22;11470;20.968;105.834;2024-03-23T04:30:34;30.70;99.90
22607;DHT22;11470;20.968;105.834;2024-03-23T04:35:37;31.30;99.90
22607;DHT22;11470;20.968;105.834;2024-03-23T04:40:41;31.70;99.90
22607;DHT22;11470;20.968;105.834;2024-03-23T04:45:44;31.90;99.90
22607;DHT22;11470;20.968;105.834;2024-03-23T04:50:48;31.90;99.90
22607;DHT22;11470;20.968;105.834;2024-03-23T04:55:52;32.20;99.90
22607;DHT22;11470;20.968;105.834;2024-03-23T05:00:59;31.40;99.90
22607;DHT22;11470;20.968;105.834;2024-03-23T05:06:02;32.50;99.90
22607;DHT22;11470;20.968;105.834;2024-03-23T05:11:05;33.50;99.90
22607;DHT22;11470;20.968;105.834;2024-03-23T05:16:09;34.00;99.90
22607;DHT22;11470;20.968;105.834;2024-03-23T05:21:13;33.70;99.90
22607;DHT22;11470;20.968;105.834;2024-03-23T05:26:16;34.70;99.90
22607;DHT22;11470;20.968;105.834;2024-03-23T05:31:27;35.60;99.90
22607;DHT22;11470;20.968;105.834;2024-03-23T05:36:31;37.20;99.90
22607;DHT22;11470;20.968;105.834;2024-03-23T05:41:35;36.60;99.90
22607;DHT22;11470;20.968;105.834;2024-03-23T05:46:39;34.90;99.90
22607;DHT22;11470;20.968;105.834;2024-03-23T05:51:42;33.80;99.90
22607;DHT22;11470;20.968;105.834;2024-03-23T05:56:45;34.40;99.90
22607;DHT22;11470;20.968;105.834;2024-03-23T06:01:49;37.00;99.90
22607;DHT22;11470;20.968;105.834;2024-03-23T06:06:53;37.10;99.90
22607;DHT22;11470;20.968;105.834;2024-03-23T06:11:56;36.70;99.90
22607;DHT22;11470;20.968;105.834;2024-03-23T06:17:00;37.50;99.90
22607;DHT22;11470;20.968;105.834;2024-03-23T06:22:04;37.60;99.90
22607;DHT22;11470;20.968;105.834;2024-03-23T06:27:09;38.50;99.90
22607;DHT22;11470;20.968;105.834;2024-03-23T06:32:13;39.70;99.90
22607;DHT22;11470;20.968;105.834;2024-03-23T06:37:17;38.00;99.90
22607;DHT22;11470;20.968;105.834;2024-03-23T06:42:20;38.50;99.90
22607;DHT22;11470;20.968;105.834;2024-03-23T06:47:23;40.00;99.90
22607;DHT22;11470;20.968;105.834;2024-03-23T06:52:28;40.40;99.90
22607;DHT22;11470;20.968;105.834;2024-03-23T06:57:33;39.80;99.90
22607;DHT22;11470;20.968;105.834;2024-03-23T07:02:36;37.90;99.90
22607;DHT22;11470;20.968;105.834;2024-03-23T07:07:40;37.00;99.90
22607;DHT22;11470;20.968;105.834;2024-03-23T07:12:43;37.70;99.90
22607;DHT22;11470;20.968;105.834;2024-03-23T07:17:48;37.40;99.90
22607;DHT22;11470;20.968;105.834;2024-03-23T07:22:51;35.20;99.90
22607;DHT22;11470;20.968;105.834;2024-03-23T07:27:58;33.90;99.90
22607;DHT22;11470;20.968;105.834;2024-03-23T07:33:02;33.80;99.90
22607;DHT22;11470;20.968;105.834;2024-03-23T07:38:05;34.70;99.90
22607;DHT22;11470;20.968;105.834;2024-03-23T07:43:09;34.30;99.90
22607;DHT22;11470;20.968;105.834;2024-03-23T07:48:12;35.20;99.90
22607;DHT22;11470;20.968;105.834;2024-03-23T07:53:19;36.90;99.90
22607;DHT22;11470;20.968;105.834;2024-03-23T07:58:22;38.00;99.90
22607;DHT22;11470;20.968;105.834;2024-03-23T08:03:26;37.80;99.90
22607;DHT22;11470;20.968;105.834;2024-03-23T08:08:30;35.40;99.90
22607;DHT22;11470;20.968;105.834;2024-03-23T08:13:38;33.80;99.90
22607;DHT22;11470;20.968;105.834;2024-03-23T08:18:43;33.30;99.90
22607;DHT22;11470;20.968;105.834;2024-03-23T08:23:47;32.80;99.90
22607;DHT22;11470;20.968;105.834;2024-03-23T08:28:51;32.40;99.90
22607;DHT22;11470;20.968;105.834;2024-03-23T08:33:55;31.90;99.90
22607;DHT22;11470;20.968;105.834;2024-03-23T08:38:58;31.80;99.90
22607;DHT22;11470;20.968;105.834;2024-03-23T08:44:02;31.30;99.90
22607;DHT22;11470;20.968;105.834;2024-03-23T08:49:05;31.10;99.90
22607;DHT22;11470;20.968;105.834;2024-03-23T08:54:09;30.60;99.90
22607;DHT22;11470;20.968;105.834;2024-03-23T08:59:12;30.40;99.90
22607;DHT22;11470;20.968;105.834;2024-03-23T09:04:16;30.20;99.90
22607;DHT22;11470;20.968;105.834;2024-03-23T09:09:19;30.20;99.90
22607;DHT22;11470;20.968;105.834;2024-03-23T09:14:23;30.10;99.90
22607;DHT22;11470;20.968;105.834;2024-03-23T09:19:30;29.90;99.90
22607;DHT22;11470;20.968;105.834;2024-03-23T09:24:33;29.80;99.90
22607;DHT22;11470;20.968;105.834;2024-03-23T09:29:36;29.60;99.90
22607;DHT22;11470;20.968;105.834;2024-03-23T09:34:40;29.50;99.90
22607;DHT22;11470;20.968;105.834;2024-03-23T09:39:47;29.30;99.90
22607;DHT22;11470;20.968;105.834;2024-03-23T09:44:51;29.00;99.90
22607;DHT22;11470;20.968;105.834;2024-03-23T09:49:55;29.00;99.90
22607;DHT22;11470;20.968;105.834;2024-03-23T09:54:58;29.20;99.90
22607;DHT22;11470;20.968;105.834;2024-03-23T10:00:03;29.10;99.90
22607;DHT22;11470;20.968;105.834;2024-03-23T10:05:21;29.00;99.90
22607;DHT22;11470;20.968;105.834;2024-03-23T10:10:26;28.90;99.90
22607;DHT22;11470;20.968;105.834;2024-03-23T10:15:29;28.90;99.90
22607;DHT22;11470;20.968;105.834;2024-03-23T10:20:33;28.80;99.90
22607;DHT22;11470;20.968;105.834;2024-03-23T10:25:37;28.80;99.90
22607;DHT22;11470;20.968;105.834;2024-03-23T10:30:41;28.70;99.90
22607;DHT22;11470;20.968;105.834;2024-03-23T10:35:49;28.40;99.90
22607;DHT22;11470;20.968;105.834;2024-03-23T10:40:53;28.20;99.90
22607;DHT22;11470;20.968;105.834;2024-03-23T10:45:58;27.90;99.90
22607;DHT22;11470;20.968;105.834;2024-03-23T10:51:02;27.60;99.90
22607;DHT22;11470;20.968;105.834;2024-03-23T10:56:07;27.40;99.90
22607;DHT22;11470;20.968;105.834;2024-03-23T11:01:14;27.10;99.90
22607;DHT22;11470;20.968;105.834;2024-03-23T11:06:35;26.90;99.90
22607;DHT22;11470;20.968;105.834;2024-03-23T11:11:39;26.70;99.90
22607;DHT22;11470;20.968;105.834;2024-03-23T11:16:43;26.50;99.90
22607;DHT22;11470;20.968;105.834;2024-03-23T11:21:56;26.40;99.90
22607;DHT22;11470;20.968;105.834;2024-03-23T11:27:00;26.40;99.90
22607;DHT22;11470;20.968;105.834;2024-03-23T11:32:10;26.40;99.90
22607;DHT22;11470;20.968;105.834;2024-03-23T11:37:16;26.30;99.90
22607;DHT22;11470;20.968;105.834;2024-03-23T11:42:19;26.20;99.90
22607;DHT22;11470;20.968;105.834;2024-03-23T11:47:24;26.20;99.90
22607;DHT22;11470;20.968;105.834;2024-03-23T11:52:28;26.20;99.90
22607;DHT22;11470;20.968;105.834;2024-03-23T11:57:31;26.10;99.90
22607;DHT22;11470;20.968;105.834;2024-03-23T12:02:35;26.10;99.90
22607;DHT22;11470;20.968;105.834;2024-03-23T12:07:39;26.10;99.90
22607;DHT22;11470;20.968;105.834;2024-03-23T12:12:43;26.00;99.90
22607;DHT22;11470;20.968;105.834;2024-03-23T12:17:46;25.90;99.90
22607;DHT22;11470;20.968;105.834;2024-03-23T12:22:50;25.80;99.90
22607;DHT22;11470;20.968;105.834;2024-03-23T12:27:59;25.80;99.90
22607;DHT22;11470;20.968;105.834;2024-03-23T12:33:03;25.70;99.90
22607;DHT22;11470;20.968;105.834;2024-03-23T12:38:07;25.70;99.90
22607;DHT22;11470;20.968;105.834;2024-03-23T12:43:11;25.50;99.90
22607;DHT22;11470;20.968;105.834;2024-03-23T12:48:16;25.40;99.90
22607;DHT22;11470;20.968;105.834;2024-03-23T12:53:19;25.50;99.90
22607;DHT22;11470;20.968;105.834;2024-03-23T12:58:23;25.30;99.90
22607;DHT22;11470;20.968;105.834;2024-03-23T13:03:27;25.30;99.90
22607;DHT22;11470;20.968;105.834;2024-03-23T13:08:31;25.20;99.90
22607;DHT22;11470;20.968;105.834;2024-03-23T13:13:38;25.20;99.90
22607;DHT22;11470;20.968;105.834;2024-03-23T13:18:42;25.10;99.90
22607;DHT22;11470;20.968;105.834;2024-03-23T13:23:49;25.10;99.90
22607;DHT22;11470;20.968;105.834;2024-03-23T13:28:54;25.00;99.90
22607;DHT22;11470;20.968;105.834;2024-03-23T13:33:57;25.00;99.90
22607;DHT22;11470;20.968;105.834;2024-03-23T13:39:01;25.00;99.90
22607;DHT22;11470;20.968;105.834;2024-03-23T13:44:09;25.00;99.90
22607;DHT22;11470;20.968;105.834;2024-03-23T13:49:28;25.10;99.90
22607;DHT22;11470;20.968;105.834;2024-03-23T13:54:32;25.10;99.90
22607;DHT22;11470;20.968;105.834;2024-03-23T13:59:35;25.00;99.90
22607;DHT22;11470;20.968;105.834;2024-03-23T14:04:39;24.90;99.90
22607;DHT22;11470;20.968;105.834;2024-03-23T14:10:13;24.90;99.90
22607;DHT22;11470;20.968;105.834;2024-03-23T14:15:21;24.80;99.90
22607;DHT22;11470;20.968;105.834;2024-03-23T14:20:25;24.80;99.90
22607;DHT22;11470;20.968;105.834;2024-03-23T14:25:28;24.70;99.90
22607;DHT22;11470;20.968;105.834;2024-03-23T14:30:33;24.70;99.90
22607;DHT22;11470;20.968;105.834;2024-03-23T14:35:36;24.70;99.90
22607;DHT22;11470;20.968;105.834;2024-03-23T14:40:40;24.60;99.90
22607;DHT22;11470;20.968;105.834;2024-03-23T14:51:15;24.70;99.90
22607;DHT22;11470;20.968;105.834;2024-03-23T14:56:20;24.70;99.90
22607;DHT22;11470;20.968;105.834;2024-03-23T15:01:24;24.70;99.90
22607;DHT22;11470;20.968;105.834;2024-03-23T15:06:28;24.60;99.90
22607;DHT22;11470;20.968;105.834;2024-03-23T15:11:32;24.60;99.90
22607;DHT22;11470;20.968;105.834;2024-03-23T15:16:35;24.60;99.90
22607;DHT22;11470;20.968;105.834;2024-03-23T15:21:39;24.50;99.90
22607;DHT22;11470;20.968;105.834;2024-03-23T15:26:42;24.50;99.90
22607;DHT22;11470;20.968;105.834;2024-03-23T15:31:46;24.40;99.90
22607;DHT22;11470;20.968;105.834;2024-03-23T15:36:49;24.40;99.90
22607;DHT22;11470;20.968;105.834;2024-03-23T15:41:54;24.40;99.90
22607;DHT22;11470;20.968;105.834;2024-03-23T15:46:58;24.30;99.90
22607;DHT22;11470;20.968;105.834;2024-03-23T15:52:03;24.30;99.90
22607;DHT22;11470;20.968;105.834;2024-03-23T15:57:06;24.30;99.90
22607;DHT22;11470;20.968;105.834;2024-03-23T16:02:10;24.30;99.90
22607;DHT22;11470;20.968;105.834;2024-03-23T16:07:13;24.20;99.90
22607;DHT22;11470;20.968;105.834;2024-03-23T16:12:18;24.20;99.90
22607;DHT22;11470;20.968;105.834;2024-03-23T16:17:21;24.20;99.90
22607;DHT22;11470;20.968;105.834;2024-03-23T16:22:24;24.20;99.90
22607;DHT22;11470;20.968;105.834;2024-03-23T16:27:28;24.20;99.90
22607;DHT22;11470;20.968;105.834;2024-03-23T16:32:32;24.20;99.90
22607;DHT22;11470;20.968;105.834;2024-03-23T16:37:38;24.20;99.90
22607;DHT22;11470;20.968;105.834;2024-03-23T16:42:42;24.10;99.90
22607;DHT22;11470;20.968;105.834;2024-03-23T16:47:45;24.10;99.90
22607;DHT22;11470;20.968;105.834;2024-03-23T16:52:49;24.10;99.90
22607;DHT22;11470;20.968;105.834;2024-03-23T16:57:52;24.00;99.90
22607;DHT22;11470;20.968;105.834;2024-03-23T17:02:56;24.00;99.90
22607;DHT22;11470;20.968;105.834;2024-03-23T17:08:00;24.00;99.90
22607;DHT22;11470;20.968;105.834;2024-03-23T17:13:03;24.10;99.90
22607;DHT22;11470;20.968;105.834;2024-03-23T17:18:07;24.10;99.90
22607;DHT22;11470;20.968;105.834;2024-03-23T17:23:11;24.10;99.90
22607;DHT22;11470;20.968;105.834;2024-03-23T17:28:15;24.10;99.90
22607;DHT22;11470;20.968;105.834;2024-03-23T17:33:19;24.10;99.90
22607;DHT22;11470;20.968;105.834;2024-03-23T17:38:26;24.10;99.90
22607;DHT22;11470;20.968;105.834;2024-03-23T17:43:30;24.10;99.90
22607;DHT22;11470;20.968;105.834;2024-03-23T17:48:34;24.20;99.90
22607;DHT22;11470;20.968;105.834;2024-03-23T17:53:40;24.10;99.90
22607;DHT22;11470;20.968;105.834;2024-03-23T17:58:48;24.10;99.90
22607;DHT22;11470;20.968;105.834;2024-03-23T18:03:55;24.10;99.90
22607;DHT22;11470;20.968;105.834;2024-03-23T18:09:00;24.00;99.90
22607;DHT22;11470;20.968;105.834;2024-03-23T18:14:05;24.00;99.90
22607;DHT22;11470;20.968;105.834;2024-03-23T18:19:08;24.10;99.90
22607;DHT22;11470;20.968;105.834;2024-03-23T18:24:12;24.20;99.90
22607;DHT22;11470;20.968;105.834;2024-03-23T18:29:15;24.20;99.90
22607;DHT22;11470;20.968;105.834;2024-03-23T18:34:19;24.30;99.90
22607;DHT22;11470;20.968;105.834;2024-03-23T18:39:23;24.30;99.90
22607;DHT22;11470;20.968;105.834;2024-03-23T18:44:26;24.30;99.90
22607;DHT22;11470;20.968;105.834;2024-03-23T18:49:30;24.30;99.90
22607;DHT22;11470;20.968;105.834;2024-03-23T18:54:34;24.40;99.90
22607;DHT22;11470;20.968;105.834;2024-03-23T18:59:37;24.40;99.90
22607;DHT22;11470;20.968;105.834;2024-03-23T19:04:40;24.30;99.90
22607;DHT22;11470;20.968;105.834;2024-03-23T19:09:44;24.40;99.90
22607;DHT22;11470;20.968;105.834;2024-03-23T19:14:47;24.40;99.90
22607;DHT22;11470;20.968;105.834;2024-03-23T19:19:52;24.40;99.90
22607;DHT22;11470;20.968;105.834;2024-03-23T19:24:56;24.30;99.90
22607;DHT22;11470;20.968;105.834;2024-03-23T19:29:59;24.40;99.90
22607;DHT22;11470;20.968;105.834;2024-03-23T19:35:03;24.40;99.90
22607;DHT22;11470;20.968;105.834;2024-03-23T19:40:07;24.30;99.90
22607;DHT22;11470;20.968;105.834;2024-03-23T19:45:11;24.30;99.90
22607;DHT22;11470;20.968;105.834;2024-03-23T19:50:15;24.30;99.90
22607;DHT22;11470;20.968;105.834;2024-03-23T19:55:18;24.30;99.90
22607;DHT22;11470;20.968;105.834;2024-03-23T20:00:22;24.40;99.90
22607;DHT22;11470;20.968;105.834;2024-03-23T20:05:25;24.40;99.90
22607;DHT22;11470;20.968;105.834;2024-03-23T20:10:32;24.40;99.90
22607;DHT22;11470;20.968;105.834;2024-03-23T20:15:36;24.40;99.90
22607;DHT22;11470;20.968;105.834;2024-03-23T20:20:40;24.40;99.90
22607;DHT22;11470;20.968;105.834;2024-03-23T20:25:56;24.40;99.90
22607;DHT22;11470;20.968;105.834;2024-03-23T20:31:02;24.30;99.90
22607;DHT22;11470;20.968;105.834;2024-03-23T20:36:10;24.30;99.90
22607;DHT22;11470;20.968;105.834;2024-03-23T20:41:14;24.30;99.90
22607;DHT22;11470;20.968;105.834;2024-03-23T20:46:18;24.10;99.90
22607;DHT22;11470;20.968;105.834;2024-03-23T20:51:21;23.90;99.90
22607;DHT22;11470;20.968;105.834;2024-03-23T20:56:25;23.90;99.90
22607;DHT22;11470;20.968;105.834;2024-03-23T21:01:28;24.00;99.90
22607;DHT22;11470;20.968;105.834;2024-03-23T21:06:35;24.10;99.90
22607;DHT22;11470;20.968;105.834;2024-03-23T21:11:39;24.20;99.90
22607;DHT22;11470;20.968;105.834;2024-03-23T21:16:42;24.30;99.90
22607;DHT22;11470;20.968;105.834;2024-03-23T21:21:45;24.30;99.90
22607;DHT22;11470;20.968;105.834;2024-03-23T21:26:49;24.40;99.90
22607;DHT22;11470;20.968;105.834;2024-03-23T21:31:52;24.40;99.90
22607;DHT22;11470;20.968;105.834;2024-03-23T21:36:55;24.40;99.90
22607;DHT22;11470;20.968;105.834;2024-03-23T21:41:59;24.10;99.90
22607;DHT22;11470;20.968;105.834;2024-03-23T21:47:02;23.90;99.90
22607;DHT22;11470;20.968;105.834;2024-03-23T21:52:06;23.80;99.90
22607;DHT22;11470;20.968;105.834;2024-03-23T21:57:10;23.80;99.90
22607;DHT22;11470;20.968;105.834;2024-03-23T22:02:15;23.90;99.90
22607;DHT22;11470;20.968;105.834;2024-03-23T22:07:18;24.10;99.90
22607;DHT22;11470;20.968;105.834;2024-03-23T22:12:28;24.30;99.90
22607;DHT22;11470;20.968;105.834;2024-03-23T22:17:31;24.40;99.90
22607;DHT22;11470;20.968;105.834;2024-03-23T22:22:35;24.40;99.90
22607;DHT22;11470;20.968;105.834;2024-03-23T22:27:39;24.40;99.90
22607;DHT22;11470;20.968;105.834;2024-03-23T22:32:46;24.30;99.90
22607;DHT22;11470;20.968;105.834;2024-03-23T22:37:50;24.30;99.90
22607;DHT22;11470;20.968;105.834;2024-03-23T22:42:53;24.20;99.90
22607;DHT22;11470;20.968;105.834;2024-03-23T22:47:57;24.30;99.90
22607;DHT22;11470;20.968;105.834;2024-03-23T22:53:01;24.30;99.90
22607;DHT22;11470;20.968;105.834;2024-03-23T22:58:04;24.40;99.90
22607;DHT22;11470;20.968;105.834;2024-03-23T23:03:12;24.50;99.90
22607;DHT22;11470;20.968;105.834;2024-03-23T23:08:15;24.50;99.90
22607;DHT22;11470;20.968;105.834;2024-03-23T23:13:19;24.50;99.90
22607;DHT22;11470;20.968;105.834;2024-03-23T23:18:24;24.60;99.90
22607;DHT22;11470;20.968;105.834;2024-03-23T23:23:37;24.40;99.90
22607;DHT22;11470;20.968;105.834;2024-03-23T23:28:46;24.30;99.90
22607;DHT22;11470;20.968;105.834;2024-03-23T23:34:27;24.10;99.90
22607;DHT22;11470;20.968;105.834;2024-03-23T23:39:31;23.90;99.90
22607;DHT22;11470;20.968;105.834;2024-03-23T23:44:34;23.90;99.90
22607;DHT22;11470;20.968;105.834;2024-03-23T23:49:38;24.00;99.90
22607;DHT22;11470;20.968;105.834;2024-03-23T23:54:41;23.90;99.90
22607;DHT22;11470;20.968;105.834;2024-03-23T23:59:44;23.90;99.90
